sensor_id;sensor_type;location;lat;lon;timestamp;P1;durP1;ratioP1;P2;durP2;ratioP2
39434;SDS011;30098;51.880;-0.518;2022-08-04T00:04:40;1.35;;;1.10;;
39434;SDS011;30098;51.880;-0.518;2022-08-04T00:07:15;1.42;;;1.15;;
39434;SDS011;30098;51.880;-0.518;2022-08-04T00:10:00;1.83;;;1.20;;
39434;SDS011;30098;51.880;-0.518;2022-08-04T00:12:28;1.50;;;1.00;;
39434;SDS011;30098;51.880;-0.518;2022-08-04T00:14:58;1.30;;;1.10;;
39434;SDS011;30098;51.880;-0.518;2022-08-04T00:17:28;1.33;;;1.10;;
39434;SDS011;30098;51.880;-0.518;2022-08-04T00:19:58;1.20;;;1.00;;
39434;SDS011;30098;51.880;-0.518;2022-08-04T00:22:29;1.38;;;1.13;;
39434;SDS011;30098;51.880;-0.518;2022-08-04T00:24:56;1.30;;;1.13;;
39434;SDS011;30098;51.880;-0.518;2022-08-04T00:27:22;2.15;;;1.08;;
39434;SDS011;30098;51.880;-0.518;2022-08-04T00:29:48;1.27;;;1.17;;
39434;SDS011;30098;51.880;-0.518;2022-08-04T00:32:14;2.15;;;1.33;;
39434;SDS011;30098;51.880;-0.518;2022-08-04T00:34:42;1.23;;;1.00;;
39434;SDS011;30098;51.880;-0.518;2022-08-04T00:37:08;1.55;;;1.20;;
39434;SDS011;30098;51.880;-0.518;2022-08-04T00:39:34;1.42;;;1.17;;
39434;SDS011;30098;51.880;-0.518;2022-08-04T00:50:30;1.83;;;1.30;;
39434;SDS011;30098;51.880;-0.518;2022-08-04T01:01:23;1.77;;;1.38;;
39434;SDS011;30098;51.880;-0.518;2022-08-04T01:15:39;2.00;;;1.30;;
39434;SDS011;30098;51.880;-0.518;2022-08-04T01:18:21;1.67;;;1.38;;
39434;SDS011;30098;51.880;-0.518;2022-08-04T01:29:15;1.20;;;1.10;;
39434;SDS011;30098;51.880;-0.518;2022-08-04T01:34:38;1.20;;;1.10;;
39434;SDS011;30098;51.880;-0.518;2022-08-04T01:37:18;1.70;;;1.33;;
39434;SDS011;30098;51.880;-0.518;2022-08-04T01:40:12;1.95;;;1.30;;
39434;SDS011;30098;51.880;-0.518;2022-08-04T01:42:38;1.58;;;1.23;;
39434;SDS011;30098;51.880;-0.518;2022-08-04T01:45:06;1.80;;;1.20;;
39434;SDS011;30098;51.880;-0.518;2022-08-04T01:47:35;1.30;;;1.10;;
39434;SDS011;30098;51.880;-0.518;2022-08-04T01:50:05;1.70;;;1.30;;
39434;SDS011;30098;51.880;-0.518;2022-08-04T01:52:37;1.70;;;1.20;;
39434;SDS011;30098;51.880;-0.518;2022-08-04T01:55:04;1.38;;;1.27;;
39434;SDS011;30098;51.880;-0.518;2022-08-04T01:57:34;1.20;;;1.00;;
39434;SDS011;30098;51.880;-0.518;2022-08-04T02:00:03;2.00;;;1.50;;
39434;SDS011;30098;51.880;-0.518;2022-08-04T02:02:29;2.60;;;1.40;;
39434;SDS011;30098;51.880;-0.518;2022-08-04T02:04:55;1.63;;;1.23;;
39434;SDS011;30098;51.880;-0.518;2022-08-04T02:18:03;1.63;;;1.20;;
39434;SDS011;30098;51.880;-0.518;2022-08-04T02:20:54;1.83;;;1.20;;
39434;SDS011;30098;51.880;-0.518;2022-08-04T02:26:05;1.38;;;1.20;;
39434;SDS011;30098;51.880;-0.518;2022-08-04T02:31:25;1.20;;;1.10;;
39434;SDS011;30098;51.880;-0.518;2022-08-04T02:36:34;1.30;;;1.20;;
39434;SDS011;30098;51.880;-0.518;2022-08-04T02:39:02;1.58;;;1.27;;
39434;SDS011;30098;51.880;-0.518;2022-08-04T02:41:29;1.60;;;1.20;;
39434;SDS011;30098;51.880;-0.518;2022-08-04T02:43:57;1.40;;;1.30;;
39434;SDS011;30098;51.880;-0.518;2022-08-04T02:46:28;1.20;;;1.10;;
39434;SDS011;30098;51.880;-0.518;2022-08-04T02:48:55;1.42;;;1.30;;
39434;SDS011;30098;51.880;-0.518;2022-08-04T02:51:28;1.77;;;1.20;;
39434;SDS011;30098;51.880;-0.518;2022-08-04T02:54:15;1.30;;;1.20;;
39434;SDS011;30098;51.880;-0.518;2022-08-04T02:56:43;1.85;;;1.20;;
39434;SDS011;30098;51.880;-0.518;2022-08-04T02:59:10;2.00;;;1.42;;
39434;SDS011;30098;51.880;-0.518;2022-08-04T03:01:38;1.20;;;1.10;;
39434;SDS011;30098;51.880;-0.518;2022-08-04T03:44:08;1.88;;;1.30;;
39434;SDS011;30098;51.880;-0.518;2022-08-04T03:55:29;1.33;;;1.13;;
39434;SDS011;30098;51.880;-0.518;2022-08-04T04:17:18;1.50;;;1.20;;
39434;SDS011;30098;51.880;-0.518;2022-08-04T04:19:54;1.25;;;1.13;;
39434;SDS011;30098;51.880;-0.518;2022-08-04T04:22:58;1.27;;;1.10;;
39434;SDS011;30098;51.880;-0.518;2022-08-04T04:25:48;1.20;;;1.10;;
39434;SDS011;30098;51.880;-0.518;2022-08-04T04:36:47;1.30;;;1.20;;
39434;SDS011;30098;51.880;-0.518;2022-08-04T04:48:08;1.90;;;1.30;;
39434;SDS011;30098;51.880;-0.518;2022-08-04T04:51:04;1.48;;;1.02;;
39434;SDS011;30098;51.880;-0.518;2022-08-04T04:56:30;1.33;;;1.17;;
39434;SDS011;30098;51.880;-0.518;2022-08-04T04:59:01;1.50;;;1.20;;
39434;SDS011;30098;51.880;-0.518;2022-08-04T05:15:28;1.40;;;1.10;;
39434;SDS011;30098;51.880;-0.518;2022-08-04T05:17:58;1.83;;;1.13;;
39434;SDS011;30098;51.880;-0.518;2022-08-04T05:20:27;1.50;;;1.30;;
39434;SDS011;30098;51.880;-0.518;2022-08-04T05:22:59;1.42;;;1.10;;
39434;SDS011;30098;51.880;-0.518;2022-08-04T05:25:43;1.33;;;1.10;;
39434;SDS011;30098;51.880;-0.518;2022-08-04T05:28:32;1.10;;;0.95;;
39434;SDS011;30098;51.880;-0.518;2022-08-04T05:31:11;1.38;;;1.10;;
39434;SDS011;30098;51.880;-0.518;2022-08-04T05:33:50;2.05;;;1.40;;
39434;SDS011;30098;51.880;-0.518;2022-08-04T05:36:20;1.60;;;1.20;;
39434;SDS011;30098;51.880;-0.518;2022-08-04T05:38:50;1.27;;;1.00;;
39434;SDS011;30098;51.880;-0.518;2022-08-04T05:41:18;1.77;;;1.08;;
39434;SDS011;30098;51.880;-0.518;2022-08-04T05:43:46;1.35;;;1.25;;
39434;SDS011;30098;51.880;-0.518;2022-08-04T05:46:14;1.30;;;1.10;;
39434;SDS011;30098;51.880;-0.518;2022-08-04T05:48:41;1.70;;;1.35;;
39434;SDS011;30098;51.880;-0.518;2022-08-04T05:51:09;1.30;;;1.10;;
39434;SDS011;30098;51.880;-0.518;2022-08-04T05:53:36;1.23;;;1.13;;
39434;SDS011;30098;51.880;-0.518;2022-08-04T05:56:03;1.25;;;1.15;;
39434;SDS011;30098;51.880;-0.518;2022-08-04T05:58:30;1.23;;;1.00;;
39434;SDS011;30098;51.880;-0.518;2022-08-04T06:00:57;1.30;;;1.20;;
39434;SDS011;30098;51.880;-0.518;2022-08-04T06:03:24;1.50;;;1.10;;
39434;SDS011;30098;51.880;-0.518;2022-08-04T06:05:53;1.00;;;1.00;;
39434;SDS011;30098;51.880;-0.518;2022-08-04T06:08:20;1.73;;;1.00;;
39434;SDS011;30098;51.880;-0.518;2022-08-04T06:10:46;1.17;;;1.08;;
39434;SDS011;30098;51.880;-0.518;2022-08-04T06:13:16;1.70;;;1.20;;
39434;SDS011;30098;51.880;-0.518;2022-08-04T06:15:44;2.45;;;1.00;;
39434;SDS011;30098;51.880;-0.518;2022-08-04T06:18:14;1.50;;;1.10;;
39434;SDS011;30098;51.880;-0.518;2022-08-04T06:20:40;1.40;;;1.13;;
39434;SDS011;30098;51.880;-0.518;2022-08-04T06:23:09;1.63;;;1.10;;
39434;SDS011;30098;51.880;-0.518;2022-08-04T06:25:42;1.40;;;1.30;;
39434;SDS011;30098;51.880;-0.518;2022-08-04T06:28:10;1.40;;;1.10;;
39434;SDS011;30098;51.880;-0.518;2022-08-04T06:30:38;1.67;;;1.23;;
39434;SDS011;30098;51.880;-0.518;2022-08-04T06:33:06;1.50;;;1.30;;
39434;SDS011;30098;51.880;-0.518;2022-08-04T06:35:52;1.20;;;1.10;;
39434;SDS011;30098;51.880;-0.518;2022-08-04T06:38:22;1.60;;;1.20;;
39434;SDS011;30098;51.880;-0.518;2022-08-04T06:40:49;1.42;;;1.17;;
39434;SDS011;30098;51.880;-0.518;2022-08-04T06:43:15;1.20;;;1.10;;
39434;SDS011;30098;51.880;-0.518;2022-08-04T06:45:42;1.27;;;1.10;;
39434;SDS011;30098;51.880;-0.518;2022-08-04T06:48:11;1.65;;;1.10;;
39434;SDS011;30098;51.880;-0.518;2022-08-04T06:50:39;1.95;;;1.50;;
39434;SDS011;30098;51.880;-0.518;2022-08-04T06:53:05;1.42;;;1.20;;
39434;SDS011;30098;51.880;-0.518;2022-08-04T06:55:32;1.60;;;1.20;;
39434;SDS011;30098;51.880;-0.518;2022-08-04T06:57:58;1.35;;;1.23;;
39434;SDS011;30098;51.880;-0.518;2022-08-04T07:00:26;1.60;;;1.10;;
39434;SDS011;30098;51.880;-0.518;2022-08-04T07:02:52;1.73;;;1.20;;
39434;SDS011;30098;51.880;-0.518;2022-08-04T07:05:18;1.58;;;1.20;;
39434;SDS011;30098;51.880;-0.518;2022-08-04T07:07:45;1.65;;;1.10;;
39434;SDS011;30098;51.880;-0.518;2022-08-04T07:10:11;2.38;;;1.27;;
39434;SDS011;30098;51.880;-0.518;2022-08-04T07:12:38;2.03;;;1.30;;
39434;SDS011;30098;51.880;-0.518;2022-08-04T07:15:05;2.05;;;1.30;;
39434;SDS011;30098;51.880;-0.518;2022-08-04T07:17:32;2.08;;;1.20;;
39434;SDS011;30098;51.880;-0.518;2022-08-04T07:20:00;1.70;;;1.10;;
39434;SDS011;30098;51.880;-0.518;2022-08-04T07:22:26;2.35;;;1.48;;
39434;SDS011;30098;51.880;-0.518;2022-08-04T07:24:53;1.48;;;1.17;;
39434;SDS011;30098;51.880;-0.518;2022-08-04T07:27:20;2.38;;;1.30;;
39434;SDS011;30098;51.880;-0.518;2022-08-04T07:29:47;1.55;;;1.30;;
39434;SDS011;30098;51.880;-0.518;2022-08-04T07:32:12;1.98;;;1.23;;
39434;SDS011;30098;51.880;-0.518;2022-08-04T07:34:40;1.77;;;1.17;;
39434;SDS011;30098;51.880;-0.518;2022-08-04T07:37:07;3.45;;;1.40;;
39434;SDS011;30098;51.880;-0.518;2022-08-04T07:39:32;2.38;;;1.50;;
39434;SDS011;30098;51.880;-0.518;2022-08-04T07:42:00;3.03;;;1.30;;
39434;SDS011;30098;51.880;-0.518;2022-08-04T07:44:28;2.33;;;1.30;;
39434;SDS011;30098;51.880;-0.518;2022-08-04T07:46:55;1.90;;;1.33;;
39434;SDS011;30098;51.880;-0.518;2022-08-04T07:49:20;3.10;;;1.45;;
39434;SDS011;30098;51.880;-0.518;2022-08-04T07:51:46;2.40;;;1.20;;
39434;SDS011;30098;51.880;-0.518;2022-08-04T07:54:13;2.35;;;1.40;;
39434;SDS011;30098;51.880;-0.518;2022-08-04T07:56:39;2.55;;;1.30;;
39434;SDS011;30098;51.880;-0.518;2022-08-04T07:59:06;3.70;;;1.40;;
39434;SDS011;30098;51.880;-0.518;2022-08-04T08:01:35;4.50;;;1.60;;
39434;SDS011;30098;51.880;-0.518;2022-08-04T08:04:01;3.47;;;1.55;;
39434;SDS011;30098;51.880;-0.518;2022-08-04T08:06:31;6.82;;;2.08;;
39434;SDS011;30098;51.880;-0.518;2022-08-04T08:09:01;7.70;;;1.70;;
39434;SDS011;30098;51.880;-0.518;2022-08-04T08:11:35;7.07;;;1.98;;
39434;SDS011;30098;51.880;-0.518;2022-08-04T08:14:01;4.78;;;1.70;;
39434;SDS011;30098;51.880;-0.518;2022-08-04T08:16:27;5.40;;;1.70;;
39434;SDS011;30098;51.880;-0.518;2022-08-04T08:18:56;4.22;;;1.88;;
39434;SDS011;30098;51.880;-0.518;2022-08-04T08:21:22;4.97;;;1.60;;
39434;SDS011;30098;51.880;-0.518;2022-08-04T08:23:48;4.80;;;1.33;;
39434;SDS011;30098;51.880;-0.518;2022-08-04T08:26:14;5.60;;;1.55;;
39434;SDS011;30098;51.880;-0.518;2022-08-04T08:28:40;6.65;;;1.38;;
39434;SDS011;30098;51.880;-0.518;2022-08-04T08:31:06;5.43;;;1.58;;
39434;SDS011;30098;51.880;-0.518;2022-08-04T08:33:31;5.53;;;1.38;;
39434;SDS011;30098;51.880;-0.518;2022-08-04T08:36:02;6.40;;;1.48;;
39434;SDS011;30098;51.880;-0.518;2022-08-04T09:17:44;4.07;;;1.20;;
39434;SDS011;30098;51.880;-0.518;2022-08-04T09:20:21;3.08;;;1.20;;
39434;SDS011;30098;51.880;-0.518;2022-08-04T09:26:00;3.08;;;1.00;;
39434;SDS011;30098;51.880;-0.518;2022-08-04T09:28:28;4.55;;;1.15;;
39434;SDS011;30098;51.880;-0.518;2022-08-04T09:31:03;3.55;;;1.10;;
39434;SDS011;30098;51.880;-0.518;2022-08-04T09:34:07;3.47;;;1.10;;
39434;SDS011;30098;51.880;-0.518;2022-08-04T09:42:08;4.40;;;1.20;;
39434;SDS011;30098;51.880;-0.518;2022-08-04T09:47:33;4.35;;;1.20;;
39434;SDS011;30098;51.880;-0.518;2022-08-04T09:50:06;4.90;;;1.20;;
39434;SDS011;30098;51.880;-0.518;2022-08-04T09:52:53;3.47;;;1.05;;
39434;SDS011;30098;51.880;-0.518;2022-08-04T09:55:33;2.92;;;0.98;;
39434;SDS011;30098;51.880;-0.518;2022-08-04T10:01:01;18.70;;;4.28;;
39434;SDS011;30098;51.880;-0.518;2022-08-04T10:03:40;8.98;;;1.75;;
39434;SDS011;30098;51.880;-0.518;2022-08-04T10:06:14;6.80;;;1.13;;
39434;SDS011;30098;51.880;-0.518;2022-08-04T10:11:43;5.32;;;1.10;;
39434;SDS011;30098;51.880;-0.518;2022-08-04T10:14:19;3.72;;;1.20;;
39434;SDS011;30098;51.880;-0.518;2022-08-04T10:16:54;6.25;;;1.67;;
39434;SDS011;30098;51.880;-0.518;2022-08-04T10:19:36;6.97;;;1.50;;
39434;SDS011;30098;51.880;-0.518;2022-08-04T10:22:20;9.82;;;1.52;;
39434;SDS011;30098;51.880;-0.518;2022-08-04T10:27:35;7.15;;;1.50;;
39434;SDS011;30098;51.880;-0.518;2022-08-04T10:30:06;3.70;;;1.30;;
39434;SDS011;30098;51.880;-0.518;2022-08-04T10:32:50;5.63;;;1.58;;
39434;SDS011;30098;51.880;-0.518;2022-08-04T10:35:18;4.25;;;1.30;;
39434;SDS011;30098;51.880;-0.518;2022-08-04T10:45:35;4.43;;;1.30;;
39434;SDS011;30098;51.880;-0.518;2022-08-04T10:51:14;6.20;;;1.50;;
39434;SDS011;30098;51.880;-0.518;2022-08-04T10:56:31;2.03;;;1.00;;
39434;SDS011;30098;51.880;-0.518;2022-08-04T10:59:02;2.75;;;1.00;;
39434;SDS011;30098;51.880;-0.518;2022-08-04T11:01:36;9.18;;;1.85;;
39434;SDS011;30098;51.880;-0.518;2022-08-04T11:04:28;3.63;;;0.93;;
39434;SDS011;30098;51.880;-0.518;2022-08-04T11:07:01;3.67;;;1.10;;
39434;SDS011;30098;51.880;-0.518;2022-08-04T11:09:28;5.18;;;0.90;;
39434;SDS011;30098;51.880;-0.518;2022-08-04T11:11:56;4.90;;;0.73;;
39434;SDS011;30098;51.880;-0.518;2022-08-04T11:14:32;5.80;;;1.30;;
39434;SDS011;30098;51.880;-0.518;2022-08-04T11:17:04;1.80;;;0.68;;
39434;SDS011;30098;51.880;-0.518;2022-08-04T11:20:09;1.58;;;0.60;;
39434;SDS011;30098;51.880;-0.518;2022-08-04T11:22:57;2.00;;;0.70;;
39434;SDS011;30098;51.880;-0.518;2022-08-04T11:25:52;2.53;;;0.77;;
39434;SDS011;30098;51.880;-0.518;2022-08-04T11:28:41;4.85;;;1.10;;
39434;SDS011;30098;51.880;-0.518;2022-08-04T11:31:18;5.72;;;1.10;;
39434;SDS011;30098;51.880;-0.518;2022-08-04T11:33:52;3.33;;;0.90;;
39434;SDS011;30098;51.880;-0.518;2022-08-04T11:36:35;3.78;;;1.17;;
39434;SDS011;30098;51.880;-0.518;2022-08-04T11:44:22;6.25;;;1.20;;
39434;SDS011;30098;51.880;-0.518;2022-08-04T11:46:56;6.45;;;1.70;;
39434;SDS011;30098;51.880;-0.518;2022-08-04T11:51:59;2.55;;;0.63;;
39434;SDS011;30098;51.880;-0.518;2022-08-04T11:54:27;3.65;;;0.90;;
39434;SDS011;30098;51.880;-0.518;2022-08-04T11:56:54;2.05;;;0.70;;
39434;SDS011;30098;51.880;-0.518;2022-08-04T11:59:20;2.60;;;1.00;;
39434;SDS011;30098;51.880;-0.518;2022-08-04T12:04:52;2.90;;;0.80;;
39434;SDS011;30098;51.880;-0.518;2022-08-04T12:07:37;2.65;;;0.70;;
39434;SDS011;30098;51.880;-0.518;2022-08-04T12:12:51;2.38;;;0.63;;
39434;SDS011;30098;51.880;-0.518;2022-08-04T12:15:30;3.03;;;0.90;;
39434;SDS011;30098;51.880;-0.518;2022-08-04T12:20:33;1.73;;;0.63;;
39434;SDS011;30098;51.880;-0.518;2022-08-04T12:23:14;2.53;;;0.80;;
39434;SDS011;30098;51.880;-0.518;2022-08-04T12:25:46;2.72;;;0.90;;
39434;SDS011;30098;51.880;-0.518;2022-08-04T12:28:32;0.98;;;0.50;;
39434;SDS011;30098;51.880;-0.518;2022-08-04T12:31:10;3.05;;;0.75;;
39434;SDS011;30098;51.880;-0.518;2022-08-04T12:33:55;1.15;;;0.60;;
39434;SDS011;30098;51.880;-0.518;2022-08-04T12:38:58;2.20;;;0.63;;
39434;SDS011;30098;51.880;-0.518;2022-08-04T12:41:30;2.10;;;0.90;;
39434;SDS011;30098;51.880;-0.518;2022-08-04T12:44:08;2.75;;;0.95;;
39434;SDS011;30098;51.880;-0.518;2022-08-04T12:46:37;1.55;;;0.60;;
39434;SDS011;30098;51.880;-0.518;2022-08-04T12:49:09;1.55;;;0.50;;
39434;SDS011;30098;51.880;-0.518;2022-08-04T12:51:36;3.13;;;0.70;;
39434;SDS011;30098;51.880;-0.518;2022-08-04T12:54:05;4.70;;;1.00;;
39434;SDS011;30098;51.880;-0.518;2022-08-04T12:56:32;3.03;;;0.77;;
39434;SDS011;30098;51.880;-0.518;2022-08-04T12:59:00;3.08;;;0.73;;
39434;SDS011;30098;51.880;-0.518;2022-08-04T13:01:27;1.98;;;0.80;;
39434;SDS011;30098;51.880;-0.518;2022-08-04T13:03:54;3.05;;;0.93;;
39434;SDS011;30098;51.880;-0.518;2022-08-04T13:06:26;1.48;;;0.73;;
39434;SDS011;30098;51.880;-0.518;2022-08-04T13:08:54;3.03;;;0.90;;
39434;SDS011;30098;51.880;-0.518;2022-08-04T13:11:26;4.97;;;1.00;;
39434;SDS011;30098;51.880;-0.518;2022-08-04T13:13:53;2.72;;;0.82;;
39434;SDS011;30098;51.880;-0.518;2022-08-04T13:16:27;3.30;;;0.80;;
39434;SDS011;30098;51.880;-0.518;2022-08-04T13:18:57;3.15;;;0.88;;
39434;SDS011;30098;51.880;-0.518;2022-08-04T13:21:25;3.45;;;0.70;;
39434;SDS011;30098;51.880;-0.518;2022-08-04T13:23:57;3.78;;;1.00;;
39434;SDS011;30098;51.880;-0.518;2022-08-04T13:26:27;4.80;;;1.00;;
39434;SDS011;30098;51.880;-0.518;2022-08-04T13:28:53;3.03;;;0.80;;
39434;SDS011;30098;51.880;-0.518;2022-08-04T13:33:52;3.67;;;0.70;;
39434;SDS011;30098;51.880;-0.518;2022-08-04T13:36:26;1.80;;;0.68;;
39434;SDS011;30098;51.880;-0.518;2022-08-04T13:38:56;4.25;;;0.55;;
39434;SDS011;30098;51.880;-0.518;2022-08-04T13:41:24;3.13;;;1.00;;
39434;SDS011;30098;51.880;-0.518;2022-08-04T13:43:56;2.97;;;0.65;;
39434;SDS011;30098;51.880;-0.518;2022-08-04T13:46:27;3.83;;;0.77;;
39434;SDS011;30098;51.880;-0.518;2022-08-04T13:48:56;3.15;;;0.80;;
39434;SDS011;30098;51.880;-0.518;2022-08-04T13:51:25;1.30;;;0.60;;
39434;SDS011;30098;51.880;-0.518;2022-08-04T13:53:55;1.15;;;0.50;;
39434;SDS011;30098;51.880;-0.518;2022-08-04T13:56:23;1.10;;;0.50;;
39434;SDS011;30098;51.880;-0.518;2022-08-04T13:58:56;4.00;;;0.70;;
39434;SDS011;30098;51.880;-0.518;2022-08-04T14:01:25;2.28;;;0.50;;
39434;SDS011;30098;51.880;-0.518;2022-08-04T14:07:24;3.30;;;0.70;;
39434;SDS011;30098;51.880;-0.518;2022-08-04T14:09:40;4.22;;;0.55;;
39434;SDS011;30098;51.880;-0.518;2022-08-04T14:12:07;2.65;;;0.80;;
39434;SDS011;30098;51.880;-0.518;2022-08-04T14:14:55;3.92;;;0.85;;
39434;SDS011;30098;51.880;-0.518;2022-08-04T14:17:24;2.45;;;0.70;;
39434;SDS011;30098;51.880;-0.518;2022-08-04T14:25:12;4.38;;;0.80;;
39434;SDS011;30098;51.880;-0.518;2022-08-04T14:30:05;1.92;;;0.68;;
39434;SDS011;30098;51.880;-0.518;2022-08-04T14:32:32;2.08;;;0.63;;
39434;SDS011;30098;51.880;-0.518;2022-08-04T14:34:57;3.35;;;0.95;;
39434;SDS011;30098;51.880;-0.518;2022-08-04T14:37:34;3.50;;;0.93;;
39434;SDS011;30098;51.880;-0.518;2022-08-04T14:40:00;2.80;;;0.98;;
39434;SDS011;30098;51.880;-0.518;2022-08-04T14:42:38;2.40;;;0.60;;
39434;SDS011;30098;51.880;-0.518;2022-08-04T14:45:11;3.65;;;0.77;;
39434;SDS011;30098;51.880;-0.518;2022-08-04T14:50:10;3.53;;;0.98;;
39434;SDS011;30098;51.880;-0.518;2022-08-04T14:52:38;3.83;;;0.80;;
39434;SDS011;30098;51.880;-0.518;2022-08-04T14:55:23;3.35;;;0.90;;
39434;SDS011;30098;51.880;-0.518;2022-08-04T14:57:50;4.47;;;0.60;;
39434;SDS011;30098;51.880;-0.518;2022-08-04T15:00:23;4.95;;;1.05;;
39434;SDS011;30098;51.880;-0.518;2022-08-04T15:02:50;2.72;;;0.70;;
39434;SDS011;30098;51.880;-0.518;2022-08-04T15:05:18;2.58;;;0.70;;
39434;SDS011;30098;51.880;-0.518;2022-08-04T15:07:45;1.70;;;0.60;;
39434;SDS011;30098;51.880;-0.518;2022-08-04T15:10:11;3.13;;;0.70;;
39434;SDS011;30098;51.880;-0.518;2022-08-04T15:12:36;2.70;;;0.50;;
39434;SDS011;30098;51.880;-0.518;2022-08-04T15:15:03;3.05;;;0.70;;
39434;SDS011;30098;51.880;-0.518;2022-08-04T15:17:29;3.10;;;0.50;;
39434;SDS011;30098;51.880;-0.518;2022-08-04T15:19:55;3.45;;;0.57;;
39434;SDS011;30098;51.880;-0.518;2022-08-04T15:22:21;4.55;;;0.60;;
39434;SDS011;30098;51.880;-0.518;2022-08-04T15:24:46;5.00;;;0.70;;
39434;SDS011;30098;51.880;-0.518;2022-08-04T15:27:11;2.22;;;0.52;;
39434;SDS011;30098;51.880;-0.518;2022-08-04T15:29:40;3.25;;;0.50;;
39434;SDS011;30098;51.880;-0.518;2022-08-04T15:32:10;6.93;;;0.88;;
39434;SDS011;30098;51.880;-0.518;2022-08-04T15:34:48;15.88;;;1.35;;
39434;SDS011;30098;51.880;-0.518;2022-08-04T15:37:24;5.85;;;0.90;;
39434;SDS011;30098;51.880;-0.518;2022-08-04T15:40:05;4.57;;;0.80;;
39434;SDS011;30098;51.880;-0.518;2022-08-04T15:42:35;4.25;;;0.70;;
39434;SDS011;30098;51.880;-0.518;2022-08-04T15:45:18;3.00;;;0.60;;
39434;SDS011;30098;51.880;-0.518;2022-08-04T15:50:32;1.90;;;0.57;;
39434;SDS011;30098;51.880;-0.518;2022-08-04T15:52:58;2.90;;;0.70;;
39434;SDS011;30098;51.880;-0.518;2022-08-04T16:00:27;2.08;;;0.50;;
39434;SDS011;30098;51.880;-0.518;2022-08-04T16:19:02;1.23;;;0.50;;
39434;SDS011;30098;51.880;-0.518;2022-08-04T16:24:20;2.13;;;0.50;;
39434;SDS011;30098;51.880;-0.518;2022-08-04T16:27:05;2.25;;;0.60;;
39434;SDS011;30098;51.880;-0.518;2022-08-04T16:34:40;1.77;;;0.50;;
39434;SDS011;30098;51.880;-0.518;2022-08-04T16:37:10;1.40;;;0.60;;
39434;SDS011;30098;51.880;-0.518;2022-08-04T16:39:38;1.98;;;0.50;;
39434;SDS011;30098;51.880;-0.518;2022-08-04T16:42:27;1.88;;;0.50;;
39434;SDS011;30098;51.880;-0.518;2022-08-04T16:50:12;1.23;;;0.40;;
39434;SDS011;30098;51.880;-0.518;2022-08-04T16:52:46;1.48;;;0.43;;
39434;SDS011;30098;51.880;-0.518;2022-08-04T16:55:14;1.40;;;0.50;;
39434;SDS011;30098;51.880;-0.518;2022-08-04T16:57:45;2.42;;;0.55;;
39434;SDS011;30098;51.880;-0.518;2022-08-04T17:00:11;3.08;;;0.50;;
39434;SDS011;30098;51.880;-0.518;2022-08-04T17:02:37;2.80;;;0.60;;
39434;SDS011;30098;51.880;-0.518;2022-08-04T17:05:03;2.90;;;0.60;;
39434;SDS011;30098;51.880;-0.518;2022-08-04T17:07:29;1.52;;;0.40;;
39434;SDS011;30098;51.880;-0.518;2022-08-04T17:10:13;1.92;;;0.50;;
39434;SDS011;30098;51.880;-0.518;2022-08-04T17:12:39;1.70;;;0.50;;
39434;SDS011;30098;51.880;-0.518;2022-08-04T17:15:18;1.58;;;0.43;;
39434;SDS011;30098;51.880;-0.518;2022-08-04T17:17:47;2.28;;;0.50;;
39434;SDS011;30098;51.880;-0.518;2022-08-04T17:20:13;1.27;;;0.50;;
39434;SDS011;30098;51.880;-0.518;2022-08-04T17:22:39;1.20;;;0.50;;
39434;SDS011;30098;51.880;-0.518;2022-08-04T17:25:05;2.17;;;0.50;;
39434;SDS011;30098;51.880;-0.518;2022-08-04T17:27:31;1.52;;;0.50;;
39434;SDS011;30098;51.880;-0.518;2022-08-04T17:29:57;1.52;;;0.50;;
39434;SDS011;30098;51.880;-0.518;2022-08-04T17:32:22;2.40;;;0.63;;
39434;SDS011;30098;51.880;-0.518;2022-08-04T17:34:53;3.47;;;0.50;;
39434;SDS011;30098;51.880;-0.518;2022-08-04T17:37:20;1.60;;;0.60;;
39434;SDS011;30098;51.880;-0.518;2022-08-04T17:39:49;0.95;;;0.50;;
39434;SDS011;30098;51.880;-0.518;2022-08-04T17:42:26;0.88;;;0.50;;
39434;SDS011;30098;51.880;-0.518;2022-08-04T17:45:05;1.15;;;0.40;;
39434;SDS011;30098;51.880;-0.518;2022-08-04T17:47:32;0.88;;;0.50;;
39434;SDS011;30098;51.880;-0.518;2022-08-04T17:50:07;1.52;;;0.60;;
39434;SDS011;30098;51.880;-0.518;2022-08-04T17:52:33;1.48;;;0.57;;
39434;SDS011;30098;51.880;-0.518;2022-08-04T17:55:01;1.55;;;0.45;;
39434;SDS011;30098;51.880;-0.518;2022-08-04T17:57:27;1.00;;;0.40;;
39434;SDS011;30098;51.880;-0.518;2022-08-04T17:59:56;1.35;;;0.50;;
39434;SDS011;30098;51.880;-0.518;2022-08-04T18:02:23;0.98;;;0.50;;
39434;SDS011;30098;51.880;-0.518;2022-08-04T18:04:51;0.90;;;0.50;;
39434;SDS011;30098;51.880;-0.518;2022-08-04T18:07:18;1.15;;;0.30;;
39434;SDS011;30098;51.880;-0.518;2022-08-04T18:10:03;1.15;;;0.50;;
39434;SDS011;30098;51.880;-0.518;2022-08-04T18:12:33;1.77;;;0.57;;
39434;SDS011;30098;51.880;-0.518;2022-08-04T18:15:05;1.02;;;0.40;;
39434;SDS011;30098;51.880;-0.518;2022-08-04T18:17:36;1.27;;;0.43;;
39434;SDS011;30098;51.880;-0.518;2022-08-04T18:20:16;1.30;;;0.60;;
39434;SDS011;30098;51.880;-0.518;2022-08-04T18:22:45;1.63;;;0.70;;
39434;SDS011;30098;51.880;-0.518;2022-08-04T18:25:12;0.82;;;0.40;;
39434;SDS011;30098;51.880;-0.518;2022-08-04T18:27:45;1.88;;;0.40;;
39434;SDS011;30098;51.880;-0.518;2022-08-04T18:30:18;1.20;;;0.50;;
39434;SDS011;30098;51.880;-0.518;2022-08-04T18:32:49;1.65;;;0.57;;
39434;SDS011;30098;51.880;-0.518;2022-08-04T18:35:14;0.65;;;0.40;;
39434;SDS011;30098;51.880;-0.518;2022-08-04T18:37:41;1.33;;;0.60;;
39434;SDS011;30098;51.880;-0.518;2022-08-04T18:40:07;0.93;;;0.50;;
39434;SDS011;30098;51.880;-0.518;2022-08-04T18:42:35;0.60;;;0.40;;
39434;SDS011;30098;51.880;-0.518;2022-08-04T18:45:01;0.95;;;0.50;;
39434;SDS011;30098;51.880;-0.518;2022-08-04T18:47:27;0.98;;;0.65;;
39434;SDS011;30098;51.880;-0.518;2022-08-04T18:49:53;1.90;;;0.70;;
39434;SDS011;30098;51.880;-0.518;2022-08-04T18:52:20;1.63;;;0.57;;
39434;SDS011;30098;51.880;-0.518;2022-08-04T18:54:46;0.60;;;0.40;;
39434;SDS011;30098;51.880;-0.518;2022-08-04T18:57:16;0.98;;;0.50;;
39434;SDS011;30098;51.880;-0.518;2022-08-04T18:59:42;1.05;;;0.40;;
39434;SDS011;30098;51.880;-0.518;2022-08-04T19:02:08;0.60;;;0.45;;
39434;SDS011;30098;51.880;-0.518;2022-08-04T19:04:34;1.38;;;0.50;;
39434;SDS011;30098;51.880;-0.518;2022-08-04T19:06:59;0.88;;;0.40;;
39434;SDS011;30098;51.880;-0.518;2022-08-04T19:09:25;1.25;;;0.45;;
39434;SDS011;30098;51.880;-0.518;2022-08-04T19:11:51;0.95;;;0.52;;
39434;SDS011;30098;51.880;-0.518;2022-08-04T19:14:16;0.95;;;0.50;;
39434;SDS011;30098;51.880;-0.518;2022-08-04T19:16:42;1.05;;;0.50;;
39434;SDS011;30098;51.880;-0.518;2022-08-04T19:19:08;0.70;;;0.40;;
39434;SDS011;30098;51.880;-0.518;2022-08-04T19:21:34;0.50;;;0.40;;
39434;SDS011;30098;51.880;-0.518;2022-08-04T19:24:00;0.77;;;0.43;;
39434;SDS011;30098;51.880;-0.518;2022-08-04T19:26:25;1.23;;;0.40;;
39434;SDS011;30098;51.880;-0.518;2022-08-04T19:28:51;0.90;;;0.50;;
39434;SDS011;30098;51.880;-0.518;2022-08-04T19:31:18;1.25;;;0.60;;
39434;SDS011;30098;51.880;-0.518;2022-08-04T19:33:43;1.10;;;0.45;;
39434;SDS011;30098;51.880;-0.518;2022-08-04T19:36:09;1.38;;;0.68;;
39434;SDS011;30098;51.880;-0.518;2022-08-04T19:38:35;1.00;;;0.50;;
39434;SDS011;30098;51.880;-0.518;2022-08-04T19:41:02;1.17;;;0.50;;
39434;SDS011;30098;51.880;-0.518;2022-08-04T19:43:29;1.27;;;0.50;;
39434;SDS011;30098;51.880;-0.518;2022-08-04T19:45:55;1.25;;;0.60;;
39434;SDS011;30098;51.880;-0.518;2022-08-04T19:48:21;1.20;;;0.55;;
39434;SDS011;30098;51.880;-0.518;2022-08-04T19:50:46;0.93;;;0.50;;
39434;SDS011;30098;51.880;-0.518;2022-08-04T19:53:12;0.90;;;0.50;;
39434;SDS011;30098;51.880;-0.518;2022-08-04T19:55:39;1.60;;;0.60;;
39434;SDS011;30098;51.880;-0.518;2022-08-04T19:58:06;1.15;;;0.60;;
39434;SDS011;30098;51.880;-0.518;2022-08-04T20:00:32;1.17;;;0.50;;
39434;SDS011;30098;51.880;-0.518;2022-08-04T20:02:59;0.98;;;0.50;;